createdAt,value
2018-05-12T00:02:02.115Z,18.00
2018-05-12T00:04:29.101Z,18.23
2018-05-12T00:06:56.070Z,19.60
2018-05-12T00:09:22.998Z,18.45
2018-05-12T00:11:49.864Z,20.20
2018-05-12T00:14:16.803Z,31.60
2018-05-12T00:16:43.674Z,30.27
2018-05-12T00:19:10.621Z,31.55
2018-05-12T00:21:37.583Z,32.30
2018-05-12T00:24:04.493Z,29.63
2018-05-12T00:26:31.634Z,27.30
2018-05-12T00:28:58.560Z,21.75
2018-05-12T00:31:25.445Z,19.90
2018-05-12T00:33:52.409Z,17.95
2018-05-12T00:36:19.390Z,15.70
2018-05-12T00:38:47.184Z,16.23
2018-05-12T00:41:15.775Z,15.85
2018-05-12T00:43:42.728Z,16.45
2018-05-12T00:46:09.662Z,16.65
2018-05-12T00:48:36.630Z,15.93
2018-05-12T00:51:03.837Z,15.00
2018-05-12T00:53:30.724Z,17.08
2018-05-12T00:55:57.716Z,17.20
2018-05-12T00:58:24.636Z,16.20
2018-05-12T01:00:51.575Z,15.85
2018-05-12T01:03:18.521Z,17.15
2018-05-12T01:05:46.397Z,16.87
2018-05-12T01:08:13.325Z,15.05
2018-05-12T01:10:40.226Z,14.70
2018-05-12T01:13:07.090Z,16.80
2018-05-12T01:15:34.037Z,15.90
2018-05-12T01:18:00.923Z,16.00
2018-05-12T01:20:27.888Z,16.87
2018-05-12T01:22:55.489Z,16.73
2018-05-12T01:25:22.491Z,15.65
2018-05-12T01:27:49.448Z,17.42
2018-05-12T01:30:16.408Z,16.30
2018-05-12T01:32:43.365Z,17.42
2018-05-12T01:35:10.226Z,16.73
2018-05-12T01:37:37.194Z,16.70
2018-05-12T01:40:04.177Z,17.27
2018-05-12T01:42:31.189Z,16.58
2018-05-12T01:44:58.099Z,17.12
2018-05-12T01:47:25.018Z,16.62
2018-05-12T01:49:51.887Z,16.52
2018-05-12T01:52:18.740Z,16.60
2018-05-12T01:54:45.803Z,16.17
2018-05-12T01:57:12.650Z,16.10
2018-05-12T01:59:39.635Z,17.00
2018-05-12T02:02:06.560Z,16.27
2018-05-12T02:04:33.683Z,18.23
2018-05-12T02:07:00.516Z,18.80
2018-05-12T02:09:27.404Z,17.67
2018-05-12T02:11:54.427Z,18.77
2018-05-12T02:14:21.349Z,18.58
2018-05-12T02:16:48.138Z,18.15
2018-05-12T02:19:15.089Z,18.75
2018-05-12T02:21:41.976Z,18.48
2018-05-12T02:24:08.919Z,19.02
2018-05-12T02:26:35.821Z,18.45
2018-05-12T02:29:02.770Z,17.75
2018-05-12T02:31:29.678Z,17.90
2018-05-12T02:33:56.656Z,19.40
2018-05-12T02:36:23.536Z,19.42
2018-05-12T02:38:50.578Z,18.23
2018-05-12T02:41:17.420Z,19.92
2018-05-12T02:43:44.282Z,19.70
2018-05-12T02:46:11.288Z,18.52
2018-05-12T02:48:38.333Z,20.25
2018-05-12T02:51:05.279Z,20.92
2018-05-12T02:53:32.226Z,19.33
2018-05-12T02:55:59.110Z,20.80
2018-05-12T02:58:26.155Z,20.27
2018-05-12T03:00:53.096Z,18.80
2018-05-12T03:03:19.928Z,20.90
2018-05-12T03:05:46.898Z,19.35
2018-05-12T03:08:13.849Z,20.23
2018-05-12T03:10:40.777Z,19.48
2018-05-12T03:13:07.724Z,20.27
2018-05-12T03:15:34.617Z,21.00
2018-05-12T03:18:01.699Z,19.62
2018-05-12T03:20:28.601Z,21.23
2018-05-12T03:22:55.500Z,20.08
2018-05-12T03:25:22.681Z,20.48
2018-05-12T03:27:49.632Z,21.00
2018-05-12T03:30:16.510Z,21.45
2018-05-12T03:32:43.502Z,21.10
2018-05-12T03:35:10.448Z,20.85
2018-05-12T03:37:37.254Z,19.75
2018-05-12T03:40:04.000Z,21.73
2018-05-12T03:42:30.720Z,22.33
2018-05-12T03:44:57.472Z,22.05
2018-05-12T03:47:24.191Z,22.37
2018-05-12T03:49:55.999Z,22.52
2018-05-12T03:52:22.750Z,20.80
2018-05-12T03:54:49.480Z,21.48
2018-05-12T03:57:16.227Z,20.62
2018-05-12T03:59:42.965Z,20.73
2018-05-12T04:02:09.718Z,21.12
2018-05-12T04:04:42.533Z,22.70
2018-05-12T04:07:15.126Z,20.37
2018-05-12T04:09:47.785Z,21.55
2018-05-12T04:12:20.387Z,20.73
2018-05-12T04:14:47.142Z,20.55
2018-05-12T04:17:13.870Z,20.00
2018-05-12T04:19:40.608Z,21.10
2018-05-12T04:22:07.373Z,21.00
2018-05-12T04:24:34.096Z,21.30
2018-05-12T04:27:00.833Z,20.70
2018-05-12T04:29:27.587Z,21.15
2018-05-12T04:31:54.307Z,22.02
2018-05-12T04:34:21.069Z,21.73
2018-05-12T04:36:47.798Z,21.20
2018-05-12T04:39:14.542Z,23.20
2018-05-12T04:41:41.284Z,22.85
2018-05-12T04:44:08.012Z,23.52
2018-05-12T04:46:34.764Z,25.40
2018-05-12T04:49:01.496Z,25.52
2018-05-12T04:51:28.236Z,24.67
2018-05-12T04:53:54.985Z,23.42
2018-05-12T04:56:21.707Z,23.70
2018-05-12T04:58:48.456Z,22.67
2018-05-12T05:01:15.183Z,23.50
2018-05-12T05:03:41.943Z,25.35
2018-05-12T05:06:08.703Z,21.73
2018-05-12T05:08:35.426Z,22.40
2018-05-12T05:11:02.174Z,23.05
2018-05-12T05:13:28.903Z,22.98
2018-05-12T05:15:56.032Z,22.98
2018-05-12T05:18:22.865Z,23.12
2018-05-12T05:20:49.609Z,22.55
2018-05-12T05:23:16.366Z,22.00
2018-05-12T05:25:43.124Z,23.40
2018-05-12T05:28:09.847Z,21.40
2018-05-12T05:30:36.710Z,24.25
2018-05-12T05:33:03.496Z,21.02
2018-05-12T05:35:30.317Z,22.95
2018-05-12T05:37:57.176Z,23.00
2018-05-12T05:40:23.932Z,21.27
2018-05-12T05:42:50.682Z,22.52
2018-05-12T05:45:17.419Z,22.83
2018-05-12T05:47:44.401Z,21.08
2018-05-12T05:50:11.138Z,22.23
2018-05-12T05:52:37.921Z,23.73
2018-05-12T05:55:04.673Z,21.12
2018-05-12T05:57:31.439Z,23.70
2018-05-12T05:59:58.182Z,24.35
2018-05-12T06:02:24.919Z,22.70
2018-05-12T06:04:51.675Z,22.10
2018-05-12T06:07:18.462Z,22.33
2018-05-12T06:09:45.203Z,22.77
2018-05-12T06:12:12.095Z,22.80
2018-05-12T06:14:38.848Z,22.20
2018-05-12T06:17:05.612Z,22.27
2018-05-12T06:19:32.420Z,22.42
2018-05-12T06:22:00.056Z,21.90
2018-05-12T06:24:26.871Z,23.35
2018-05-12T06:26:53.729Z,24.85
2018-05-12T06:29:20.514Z,21.50
2018-05-12T06:31:47.290Z,23.75
2018-05-12T06:34:14.050Z,24.13
2018-05-12T06:36:40.794Z,21.90
2018-05-12T06:39:07.529Z,23.00
2018-05-12T06:41:34.353Z,22.40
2018-05-12T06:44:01.259Z,20.23
2018-05-12T06:46:28.179Z,21.40
2018-05-12T06:48:54.980Z,22.90
2018-05-12T06:51:21.715Z,21.80
2018-05-12T06:53:48.492Z,20.80
2018-05-12T06:56:16.148Z,20.90
2018-05-12T06:58:42.933Z,20.43
2018-05-12T07:01:09.725Z,22.30
2018-05-12T07:03:36.565Z,21.47
2018-05-12T07:06:03.343Z,21.27
2018-05-12T07:08:30.090Z,19.27
2018-05-12T07:10:56.890Z,19.90
2018-05-12T07:13:23.701Z,18.97
2018-05-12T07:15:50.418Z,18.20
2018-05-12T07:18:17.463Z,17.93
2018-05-12T07:20:44.459Z,17.23
2018-05-12T07:23:11.353Z,16.20
2018-05-12T07:25:39.560Z,16.67
2018-05-12T07:28:06.392Z,15.90
2018-05-12T07:30:33.588Z,16.37
2018-05-12T07:33:00.390Z,15.90
2018-05-12T07:35:27.123Z,17.00
2018-05-12T07:37:53.877Z,16.23
2018-05-12T07:40:20.616Z,17.30
2018-05-12T07:42:47.577Z,18.33
2018-05-12T07:45:14.759Z,17.10
2018-05-12T07:47:41.629Z,16.23
2018-05-12T07:50:10.910Z,15.73
2018-05-12T07:52:41.328Z,16.60
2018-05-12T07:55:08.452Z,16.47
2018-05-12T07:57:35.385Z,16.70
2018-05-12T08:00:04.080Z,15.83
2018-05-12T08:02:31.700Z,16.50
2018-05-12T08:04:59.963Z,14.60
2018-05-12T08:07:28.526Z,14.57
2018-05-12T08:09:59.079Z,12.93
2018-05-12T08:12:27.144Z,13.63
2018-05-12T08:14:54.961Z,13.53
2018-05-12T08:17:25.563Z,14.50
2018-05-12T08:19:53.229Z,11.87
2018-05-12T08:22:20.778Z,13.37
2018-05-12T08:24:49.527Z,14.10
2018-05-12T08:27:16.296Z,13.40
2018-05-12T08:29:43.096Z,15.17
2018-05-12T08:32:12.723Z,15.03
2018-05-12T08:34:39.695Z,15.50
2018-05-12T08:37:07.812Z,15.97
2018-05-12T08:39:36.108Z,16.53
2018-05-12T08:42:04.293Z,17.40
2018-05-12T08:44:32.572Z,16.60
2018-05-12T08:47:00.238Z,17.47
2018-05-12T08:49:28.850Z,17.10
2018-05-12T08:51:56.837Z,17.33
2018-05-12T08:54:25.260Z,17.73
2018-05-12T08:56:53.276Z,20.67
2018-05-12T08:59:21.886Z,18.63
2018-05-12T09:01:50.641Z,20.53
2018-05-12T09:04:18.994Z,20.93
2018-05-12T09:06:48.481Z,20.60
2018-05-12T09:09:17.541Z,19.77
2018-05-12T09:11:46.742Z,19.50
2018-05-12T09:14:15.564Z,16.30
2018-05-12T09:16:44.142Z,16.80
2018-05-12T09:19:13.545Z,17.67
2018-05-12T09:21:41.850Z,16.27
2018-05-12T09:24:10.790Z,15.63
2018-05-12T09:26:40.040Z,16.63
2018-05-12T09:29:08.571Z,17.10
2018-05-12T09:31:37.019Z,16.00
2018-05-12T09:34:06.486Z,16.53
2018-05-12T09:36:35.611Z,15.53
2018-05-12T09:39:04.603Z,16.73
2018-05-12T09:41:32.365Z,15.17
2018-05-12T09:44:00.584Z,15.33
2018-05-12T09:46:28.733Z,14.57
2018-05-12T09:48:57.774Z,14.37
2018-05-12T09:51:25.713Z,14.00
2018-05-12T09:53:54.081Z,15.13
2018-05-12T09:56:22.572Z,13.93
2018-05-12T09:58:50.952Z,13.53
2018-05-12T10:01:20.225Z,15.80
2018-05-12T10:03:49.246Z,13.57
2018-05-12T10:06:17.056Z,13.53
2018-05-12T10:08:44.987Z,13.93
2018-05-12T10:11:13.027Z,15.30
2018-05-12T10:13:41.091Z,15.03
2018-05-12T10:16:09.666Z,16.20
2018-05-12T10:18:38.226Z,17.60
2018-05-12T10:21:05.748Z,16.50
2018-05-12T10:23:33.786Z,17.43
2018-05-12T10:26:03.210Z,17.40
2018-05-12T10:28:32.281Z,19.10
2018-05-12T10:31:00.166Z,17.83
2018-05-12T10:33:26.967Z,18.20
2018-05-12T10:35:53.730Z,17.40
2018-05-12T10:38:20.479Z,15.90
2018-05-12T10:40:47.342Z,14.63
2018-05-12T10:43:14.178Z,14.47
2018-05-12T10:45:41.006Z,15.90
2018-05-12T10:48:07.725Z,14.50
2018-05-12T10:50:34.477Z,17.77
2018-05-12T10:53:01.257Z,15.20
2018-05-12T10:55:27.980Z,15.40
2018-05-12T10:57:54.978Z,15.13
2018-05-12T11:00:21.733Z,17.30
2018-05-12T11:02:48.574Z,14.53
2018-05-12T11:05:15.322Z,16.53
2018-05-12T11:07:42.045Z,16.53
2018-05-12T11:10:08.807Z,15.97
2018-05-12T11:12:35.528Z,16.23
2018-05-12T11:15:02.259Z,16.70
2018-05-12T11:17:29.052Z,16.53
2018-05-12T11:19:55.772Z,16.57
2018-05-12T11:22:22.508Z,16.43
2018-05-12T11:24:49.264Z,17.37
2018-05-12T11:27:16.008Z,15.90
2018-05-12T11:29:42.781Z,14.03
2018-05-12T11:32:09.542Z,14.13
2018-05-12T11:34:36.311Z,13.70
2018-05-12T11:37:03.096Z,14.43
2018-05-12T11:39:29.924Z,14.90
2018-05-12T11:41:56.651Z,14.17
2018-05-12T11:44:23.492Z,16.93
2018-05-12T11:46:50.625Z,15.03
2018-05-12T11:49:17.379Z,13.47
2018-05-12T11:51:44.246Z,12.63
2018-05-12T11:54:11.039Z,12.90
2018-05-12T11:56:37.771Z,12.60
2018-05-12T11:59:04.491Z,14.60
2018-05-12T12:01:31.257Z,13.07
2018-05-12T12:03:57.980Z,14.13
2018-05-12T12:06:24.723Z,13.30
2018-05-12T12:08:51.570Z,14.03
2018-05-12T12:11:18.384Z,15.73
2018-05-12T12:13:45.211Z,14.13
2018-05-12T12:16:11.975Z,14.70
2018-05-12T12:18:38.742Z,13.80
2018-05-12T12:21:05.705Z,13.47
2018-05-12T12:23:32.537Z,11.20
2018-05-12T12:25:59.273Z,10.97
2018-05-12T12:28:26.024Z,10.90
2018-05-12T12:30:52.858Z,10.70
2018-05-12T12:33:19.665Z,10.87
2018-05-12T12:35:46.338Z,12.10
2018-05-12T12:38:13.134Z,12.50
2018-05-12T12:40:40.019Z,12.20
2018-05-12T12:43:06.809Z,13.93
2018-05-12T12:45:33.540Z,13.87
2018-05-12T12:48:00.352Z,13.73
2018-05-12T12:50:27.201Z,12.57
2018-05-12T12:52:53.956Z,14.47
2018-05-12T12:55:20.679Z,13.83
2018-05-12T12:57:47.409Z,12.30
2018-05-12T13:00:14.159Z,13.90
2018-05-12T13:02:40.895Z,13.83
2018-05-12T13:05:07.680Z,14.10
2018-05-12T13:07:34.527Z,14.57
2018-05-12T13:10:01.610Z,13.00
2018-05-12T13:15:21.772Z,14.00
2018-05-12T13:17:48.526Z,13.50
2018-05-12T13:20:15.243Z,13.90
2018-05-12T13:22:41.975Z,14.73
2018-05-12T13:25:08.805Z,14.60
2018-05-12T13:27:35.528Z,13.87
2018-05-12T13:30:02.307Z,13.67
2018-05-12T13:32:29.179Z,14.57
2018-05-12T13:34:55.883Z,19.00
2018-05-12T13:37:22.661Z,17.00
2018-05-12T13:39:49.395Z,19.40
2018-05-12T13:42:16.148Z,18.80
2018-05-12T13:44:42.875Z,19.50
2018-05-12T13:47:09.596Z,19.00
2018-05-12T13:49:36.338Z,20.53
2018-05-12T13:52:03.147Z,19.23
2018-05-12T13:54:29.831Z,17.80
2018-05-12T13:56:56.622Z,19.50
2018-05-12T13:59:23.347Z,21.27
2018-05-12T14:01:50.142Z,21.93
2018-05-12T14:04:16.949Z,21.33
2018-05-12T14:06:43.706Z,22.93
2018-05-12T14:09:10.433Z,22.07
2018-05-12T14:11:37.194Z,23.07
2018-05-12T14:14:03.914Z,23.07
2018-05-12T14:16:30.749Z,23.57
2018-05-12T14:18:57.480Z,22.90
2018-05-12T14:21:24.207Z,23.97
2018-05-12T14:23:50.946Z,23.83
2018-05-12T14:26:17.757Z,23.40
2018-05-12T14:28:44.441Z,23.63
2018-05-12T14:31:11.226Z,24.77
2018-05-12T14:33:38.055Z,24.43
2018-05-12T14:36:05.001Z,26.40
2018-05-12T14:38:31.825Z,23.80
2018-05-12T14:40:58.626Z,27.77
2018-05-12T14:43:25.354Z,26.83
2018-05-12T14:45:52.165Z,25.90
2018-05-12T14:48:19.041Z,24.70
2018-05-12T14:50:45.876Z,25.80
2018-05-12T14:53:12.891Z,25.50
2018-05-12T14:55:39.848Z,25.17
2018-05-12T14:58:06.818Z,27.10
2018-05-12T15:00:33.848Z,25.00
2018-05-12T15:03:00.638Z,23.20
2018-05-12T15:05:27.412Z,23.80
2018-05-12T15:07:54.211Z,22.90
2018-05-12T15:10:20.928Z,23.60
2018-05-12T15:12:47.677Z,25.20
2018-05-12T15:15:14.415Z,24.87
2018-05-12T15:17:41.436Z,23.17
2018-05-12T15:20:08.347Z,24.50
2018-05-12T15:22:35.171Z,24.40
2018-05-12T15:25:01.960Z,23.50
2018-05-12T15:27:28.725Z,23.77
2018-05-12T15:29:55.615Z,23.80
2018-05-12T15:32:23.266Z,24.03
2018-05-12T15:34:50.360Z,22.40
2018-05-12T15:37:17.144Z,21.77
2018-05-12T15:39:44.037Z,22.00
2018-05-12T15:42:10.792Z,21.50
2018-05-12T15:44:37.514Z,24.20
2018-05-12T15:47:04.300Z,21.77
2018-05-12T15:49:31.036Z,23.43
2018-05-12T15:51:57.855Z,24.67
2018-05-12T15:54:24.614Z,22.90
2018-05-12T15:56:51.570Z,25.50
2018-05-12T15:59:20.546Z,22.50
2018-05-12T16:01:47.319Z,22.63
2018-05-12T16:04:14.641Z,23.10
2018-05-12T16:06:41.433Z,24.40
2018-05-12T16:09:10.274Z,21.60
2018-05-12T16:11:37.040Z,23.33
2018-05-12T16:14:03.787Z,23.40
2018-05-12T16:16:30.516Z,21.80
2018-05-12T16:18:57.260Z,21.70
2018-05-12T16:21:24.834Z,24.20
2018-05-12T16:23:53.709Z,23.20
2018-05-12T16:26:20.471Z,24.10
2018-05-12T16:28:47.356Z,23.50
2018-05-12T16:31:15.372Z,26.50
2018-05-12T16:33:42.929Z,25.13
2018-05-12T16:36:10.251Z,23.63
2018-05-12T16:38:36.988Z,23.80
2018-05-12T16:41:04.440Z,25.23
2018-05-12T16:43:32.529Z,25.50
2018-05-12T16:46:00.259Z,26.23
2018-05-12T16:48:28.217Z,25.57
2018-05-12T16:50:55.908Z,24.47
2018-05-12T16:53:22.779Z,25.97
2018-05-12T16:55:49.542Z,24.60
2018-05-12T16:58:16.258Z,23.83
2018-05-12T17:00:43.037Z,25.63
2018-05-12T17:03:10.286Z,25.43
2018-05-12T17:05:37.008Z,25.27
2018-05-12T17:08:03.770Z,23.30
2018-05-12T17:10:30.509Z,25.60
2018-05-12T17:12:57.239Z,24.60
2018-05-12T17:15:24.003Z,23.63
2018-05-12T17:17:50.727Z,24.67
2018-05-12T17:20:17.502Z,23.43
2018-05-12T17:22:44.234Z,23.63
2018-05-12T17:25:10.995Z,23.90
2018-05-12T17:27:37.720Z,24.20
2018-05-12T17:30:04.476Z,24.50
2018-05-12T17:32:31.225Z,24.80
2018-05-12T17:34:57.953Z,23.90
2018-05-12T17:37:24.703Z,25.70
2018-05-12T17:39:51.423Z,23.43
2018-05-12T17:42:18.179Z,23.90
2018-05-12T17:44:44.930Z,24.13
2018-05-12T17:47:11.652Z,24.57
2018-05-12T17:49:38.389Z,24.33
2018-05-12T17:52:05.144Z,24.63
2018-05-12T17:54:31.872Z,24.90
2018-05-12T17:56:58.604Z,24.10
2018-05-12T17:59:25.400Z,24.80
2018-05-12T18:01:52.175Z,24.33
2018-05-12T18:04:18.933Z,25.40
2018-05-12T18:06:45.656Z,24.17
2018-05-12T18:09:12.412Z,24.47
2018-05-12T18:11:39.153Z,24.47
2018-05-12T18:14:05.918Z,23.70
2018-05-12T18:16:32.667Z,24.80
2018-05-12T18:18:59.432Z,25.50
2018-05-12T18:21:26.176Z,24.70
2018-05-12T18:23:52.913Z,23.50
2018-05-12T18:26:19.658Z,25.27
2018-05-12T18:28:46.390Z,24.90
2018-05-12T18:31:13.157Z,25.40
2018-05-12T18:33:39.904Z,25.50
2018-05-12T18:36:06.716Z,26.60
2018-05-12T18:38:33.458Z,26.90
2018-05-12T18:41:00.189Z,28.00
2018-05-12T18:43:26.930Z,27.53
2018-05-12T18:45:53.666Z,31.33
2018-05-12T18:48:20.384Z,31.70
2018-05-12T18:50:47.133Z,29.23
2018-05-12T18:53:13.891Z,28.20
2018-05-12T18:55:40.636Z,27.37
2018-05-12T18:58:07.370Z,27.73
2018-05-12T19:00:34.140Z,29.17
2018-05-12T19:03:00.876Z,31.00
2018-05-12T19:05:27.604Z,30.03
2018-05-12T19:07:54.375Z,27.97
2018-05-12T19:10:21.110Z,28.10
2018-05-12T19:12:47.838Z,30.90
2018-05-12T19:15:14.693Z,29.50
2018-05-12T19:17:41.465Z,27.27
2018-05-12T19:20:08.175Z,28.17
2018-05-12T19:22:34.985Z,28.33
2018-05-12T19:25:01.733Z,28.50
2018-05-12T19:27:28.495Z,28.07
2018-05-12T19:29:55.218Z,28.07
2018-05-12T19:32:21.948Z,25.60
2018-05-12T19:34:48.711Z,28.00
2018-05-12T19:37:15.436Z,25.50
2018-05-12T19:39:42.182Z,26.80
2018-05-12T19:42:08.930Z,26.83
2018-05-12T19:44:35.675Z,27.80
2018-05-12T19:47:02.416Z,25.97
2018-05-12T19:49:29.210Z,27.07
2018-05-12T19:51:55.958Z,28.50
2018-05-12T19:54:22.717Z,28.10
2018-05-12T19:56:49.551Z,25.90
2018-05-12T19:59:16.244Z,26.90
2018-05-12T20:01:42.983Z,26.33
2018-05-12T20:04:09.703Z,25.40
2018-05-12T20:06:36.558Z,26.03
2018-05-12T20:09:03.343Z,26.80
2018-05-12T20:11:30.111Z,26.57
2018-05-12T20:13:56.838Z,26.27
2018-05-12T20:16:23.570Z,23.80
2018-05-12T20:18:50.352Z,24.30
2018-05-12T20:21:17.108Z,23.23
2018-05-12T20:23:43.835Z,26.53
2018-05-12T20:26:10.579Z,24.27
2018-05-12T20:28:37.304Z,23.40
2018-05-12T20:31:04.123Z,26.10
2018-05-12T20:33:30.800Z,23.77
2018-05-12T20:35:57.522Z,24.90
2018-05-12T20:38:24.284Z,24.30
2018-05-12T20:40:51.006Z,25.70
2018-05-12T20:43:17.770Z,25.37
2018-05-12T20:45:44.500Z,25.50
2018-05-12T20:48:11.231Z,25.73
2018-05-12T20:50:37.986Z,23.30
2018-05-12T20:53:04.751Z,23.10
2018-05-12T20:55:31.495Z,24.40
2018-05-12T20:57:58.227Z,24.80
2018-05-12T21:00:24.976Z,23.93
2018-05-12T21:02:51.702Z,24.47
2018-05-12T21:05:18.491Z,24.37
2018-05-12T21:07:45.214Z,24.40
2018-05-12T21:10:11.952Z,27.10
2018-05-12T21:12:38.759Z,23.23
2018-05-12T21:15:05.506Z,24.67
2018-05-12T21:17:32.241Z,24.90
2018-05-12T21:19:59.008Z,25.27
2018-05-12T21:22:25.757Z,25.10
2018-05-12T21:24:52.524Z,24.48
2018-05-12T21:27:19.250Z,26.87
2018-05-12T21:29:45.972Z,25.20
2018-05-12T21:32:12.741Z,23.80
2018-05-12T21:34:39.463Z,24.50
2018-05-12T21:37:06.276Z,24.55
2018-05-12T21:39:33.067Z,25.07
2018-05-12T21:41:59.807Z,24.20
2018-05-12T21:44:26.534Z,25.43
2018-05-12T21:46:53.287Z,25.75
2018-05-12T21:49:20.167Z,24.02
2018-05-12T21:51:46.912Z,25.20
2018-05-12T21:54:13.673Z,25.30
2018-05-12T21:56:40.430Z,24.90
2018-05-12T21:59:07.191Z,25.48
2018-05-12T22:01:33.967Z,27.10
2018-05-12T22:04:00.701Z,24.70
2018-05-12T22:06:27.606Z,26.77
2018-05-12T22:08:54.701Z,24.95
2018-05-12T22:11:21.874Z,24.75
2018-05-12T22:13:48.734Z,24.00
2018-05-12T22:16:15.523Z,24.90
2018-05-12T22:18:42.347Z,24.30
2018-05-12T22:21:09.155Z,24.13
2018-05-12T22:23:35.892Z,24.30
2018-05-12T22:26:02.663Z,26.02
2018-05-12T22:28:29.402Z,25.48
2018-05-12T22:30:56.143Z,23.87
2018-05-12T22:33:22.903Z,23.60
2018-05-12T22:35:49.715Z,24.83
2018-05-12T22:38:16.543Z,25.25
2018-05-12T22:40:43.296Z,26.73
2018-05-12T22:43:10.053Z,24.10
2018-05-12T22:45:36.797Z,24.57
2018-05-12T22:48:03.524Z,23.45
2018-05-12T22:50:30.273Z,24.02
2018-05-12T22:52:57.024Z,25.40
2018-05-12T22:55:23.787Z,24.08
2018-05-12T22:57:50.529Z,26.10
2018-05-12T23:00:17.271Z,23.95
2018-05-12T23:02:44.158Z,24.50
2018-05-12T23:05:10.915Z,22.65
2018-05-12T23:07:37.656Z,23.58
2018-05-12T23:10:04.520Z,23.45
2018-05-12T23:12:31.237Z,25.30
2018-05-12T23:14:58.002Z,26.98
2018-05-12T23:17:24.738Z,27.13
2018-05-12T23:19:51.511Z,26.80
2018-05-12T23:22:18.313Z,24.58
2018-05-12T23:24:45.000Z,24.05
2018-05-12T23:27:11.784Z,25.62
2018-05-12T23:29:38.553Z,25.00
2018-05-12T23:32:05.319Z,24.02
2018-05-12T23:34:32.087Z,24.10
2018-05-12T23:36:58.832Z,23.83
2018-05-12T23:39:25.599Z,23.67
2018-05-12T23:41:52.368Z,22.75
2018-05-12T23:44:19.106Z,24.35
2018-05-12T23:46:45.870Z,23.08
2018-05-12T23:49:12.610Z,24.27
2018-05-12T23:51:39.374Z,23.77
2018-05-12T23:54:06.121Z,23.42
2018-05-12T23:56:32.872Z,23.48
2018-05-12T23:58:59.671Z,24.87
